createdAt,value
2018-07-07T00:01:28.005Z,14.83
2018-07-07T00:04:02.218Z,14.85
2018-07-07T00:06:35.645Z,14.87
2018-07-07T00:09:09.088Z,14.76
2018-07-07T00:11:42.468Z,14.72
2018-07-07T00:14:15.896Z,14.67
2018-07-07T00:16:49.264Z,14.70
2018-07-07T00:19:22.697Z,14.69
2018-07-07T00:21:56.063Z,14.62
2018-07-07T00:24:29.472Z,14.58
2018-07-07T00:27:02.836Z,14.59
2018-07-07T00:29:37.116Z,14.55
2018-07-07T00:32:10.599Z,14.51
2018-07-07T00:34:43.998Z,14.52
2018-07-07T00:37:17.375Z,14.50
2018-07-07T00:39:50.787Z,14.46
2018-07-07T00:42:24.162Z,14.44
2018-07-07T00:44:57.606Z,14.36
2018-07-07T00:47:31.031Z,14.32
2018-07-07T00:50:04.829Z,14.35
2018-07-07T00:52:38.206Z,14.36
2018-07-07T00:55:11.604Z,14.30
2018-07-07T00:57:45.024Z,14.31
2018-07-07T01:00:18.415Z,14.24
2018-07-07T01:02:51.767Z,14.28
2018-07-07T01:05:35.017Z,14.27
2018-07-07T01:08:08.383Z,14.25
2018-07-07T01:10:41.795Z,14.31
2018-07-07T01:13:15.703Z,14.31
2018-07-07T01:15:49.110Z,14.32
2018-07-07T01:18:22.490Z,14.32
2018-07-07T01:20:55.869Z,14.28
2018-07-07T01:23:29.222Z,14.35
2018-07-07T01:26:02.632Z,14.36
2018-07-07T01:28:36.027Z,14.39
2018-07-07T01:31:09.999Z,14.38
2018-07-07T01:33:43.394Z,14.36
2018-07-07T01:36:16.791Z,14.35
2018-07-07T01:38:50.148Z,14.30
2018-07-07T01:41:23.576Z,14.26
2018-07-07T01:43:56.972Z,14.25
2018-07-07T01:46:30.378Z,14.17
2018-07-07T01:49:03.806Z,14.11
2018-07-07T01:51:37.195Z,14.09
2018-07-07T01:54:10.621Z,14.14
2018-07-07T01:56:44.035Z,14.13
2018-07-07T01:59:17.436Z,14.15
2018-07-07T02:01:50.904Z,14.15
2018-07-07T02:04:24.349Z,14.15
2018-07-07T02:06:58.592Z,14.15
2018-07-07T02:09:32.036Z,14.13
2018-07-07T02:12:06.277Z,14.11
2018-07-07T02:14:39.655Z,14.04
2018-07-07T02:17:13.044Z,14.07
2018-07-07T02:19:46.440Z,14.03
2018-07-07T02:22:22.742Z,13.97
2018-07-07T02:24:56.131Z,14.05
2018-07-07T02:27:29.494Z,14.04
2018-07-07T02:30:02.892Z,14.04
2018-07-07T02:32:36.344Z,13.99
2018-07-07T02:35:09.737Z,13.97
2018-07-07T02:37:43.119Z,13.99
2018-07-07T02:40:16.547Z,13.99
2018-07-07T02:42:49.954Z,13.98
2018-07-07T02:45:23.461Z,13.94
2018-07-07T02:47:56.812Z,13.93
2018-07-07T02:50:30.243Z,13.92
2018-07-07T02:53:03.611Z,13.87
2018-07-07T02:55:37.006Z,13.85
2018-07-07T02:58:10.372Z,13.83
2018-07-07T03:00:43.785Z,13.87
2018-07-07T03:03:17.189Z,13.89
2018-07-07T03:05:50.655Z,13.90
2018-07-07T03:08:24.045Z,13.89
2018-07-07T03:10:57.520Z,13.87
2018-07-07T03:13:30.952Z,14.01
2018-07-07T03:16:04.358Z,14.04
2018-07-07T03:18:37.747Z,14.11
2018-07-07T03:21:11.158Z,14.16
2018-07-07T03:23:44.532Z,14.28
2018-07-07T03:26:18.160Z,14.35
2018-07-07T03:28:51.527Z,14.42
2018-07-07T03:31:24.913Z,14.45
2018-07-07T03:33:58.315Z,14.55
2018-07-07T03:36:31.743Z,14.62
2018-07-07T03:39:06.563Z,14.67
2018-07-07T03:41:39.939Z,14.70
2018-07-07T03:44:13.318Z,14.74
2018-07-07T03:46:46.734Z,14.79
2018-07-07T03:49:20.156Z,14.84
2018-07-07T03:51:53.521Z,14.90
2018-07-07T03:54:26.931Z,14.92
2018-07-07T03:57:00.392Z,14.97
2018-07-07T03:59:33.772Z,15.06
2018-07-07T04:02:08.906Z,15.08
2018-07-07T04:04:42.284Z,15.10
2018-07-07T04:07:15.756Z,15.11
2018-07-07T04:09:49.206Z,15.23
2018-07-07T04:12:22.664Z,15.39
2018-07-07T04:14:56.032Z,15.43
2018-07-07T04:17:29.436Z,15.56
2018-07-07T04:20:02.807Z,15.65
2018-07-07T04:22:36.219Z,15.75
2018-07-07T04:25:09.604Z,15.67
2018-07-07T04:27:43.023Z,15.69
2018-07-07T04:30:16.405Z,15.73
2018-07-07T04:32:49.870Z,15.90
2018-07-07T04:35:23.232Z,16.05
2018-07-07T04:37:56.634Z,16.19
2018-07-07T04:40:30.004Z,16.38
2018-07-07T04:43:03.407Z,16.38
2018-07-07T04:45:36.837Z,16.49
2018-07-07T04:48:10.280Z,16.55
2018-07-07T04:50:43.703Z,16.61
2018-07-07T04:53:17.122Z,16.53
2018-07-07T04:55:50.497Z,16.53
2018-07-07T04:58:24.791Z,16.70
2018-07-07T05:00:58.211Z,16.81
2018-07-07T05:03:31.632Z,16.96
2018-07-07T05:06:05.809Z,17.26
2018-07-07T05:08:39.218Z,17.40
2018-07-07T05:11:12.597Z,17.50
2018-07-07T05:13:46.067Z,17.71
2018-07-07T05:16:19.505Z,17.86
2018-07-07T05:18:52.899Z,18.15
2018-07-07T05:21:26.272Z,18.27
2018-07-07T05:23:59.680Z,18.43
2018-07-07T05:26:33.032Z,18.58
2018-07-07T05:29:06.420Z,18.75
2018-07-07T05:31:39.845Z,18.79
2018-07-07T05:34:13.258Z,18.82
2018-07-07T05:36:46.649Z,19.07
2018-07-07T05:39:20.037Z,19.21
2018-07-07T05:41:53.916Z,19.43
2018-07-07T05:44:27.293Z,19.49
2018-07-07T05:47:00.640Z,19.55
2018-07-07T05:49:34.034Z,19.69
2018-07-07T05:52:07.419Z,19.60
2018-07-07T05:54:40.822Z,19.69
2018-07-07T05:57:14.212Z,19.87
2018-07-07T05:59:47.634Z,19.98
2018-07-07T06:02:21.047Z,20.09
2018-07-07T06:04:54.507Z,20.11
2018-07-07T06:07:27.910Z,20.26
2018-07-07T06:10:01.322Z,20.41
2018-07-07T06:12:34.823Z,20.34
2018-07-07T06:15:08.847Z,20.41
2018-07-07T06:17:42.289Z,20.42
2018-07-07T06:20:15.648Z,20.47
2018-07-07T06:22:49.032Z,20.40
2018-07-07T06:25:22.371Z,20.53
2018-07-07T06:27:55.788Z,20.60
2018-07-07T06:30:29.150Z,20.58
2018-07-07T06:33:02.547Z,20.71
2018-07-07T06:35:35.949Z,21.02
2018-07-07T06:38:09.337Z,21.05
2018-07-07T06:40:42.690Z,21.20
2018-07-07T06:43:16.173Z,21.35
2018-07-07T06:45:49.552Z,21.50
2018-07-07T06:48:22.942Z,21.55
2018-07-07T06:50:56.361Z,21.48
2018-07-07T06:53:29.759Z,21.29
2018-07-07T06:56:03.133Z,21.01
2018-07-07T06:58:36.554Z,21.16
2018-07-07T07:01:09.915Z,21.44
2018-07-07T07:03:43.419Z,21.36
2018-07-07T07:06:16.813Z,21.32
2018-07-07T07:08:50.202Z,21.49
2018-07-07T07:11:23.562Z,21.59
2018-07-07T07:13:57.006Z,21.65
2018-07-07T07:16:30.361Z,21.68
2018-07-07T07:19:04.474Z,21.84
2018-07-07T07:21:38.108Z,21.85
2018-07-07T07:24:11.481Z,21.93
2018-07-07T07:26:44.884Z,22.02
2018-07-07T07:29:18.408Z,22.11
2018-07-07T07:31:51.779Z,22.22
2018-07-07T07:34:25.226Z,22.23
2018-07-07T07:36:58.695Z,22.26
2018-07-07T07:39:32.104Z,22.35
2018-07-07T07:42:05.514Z,22.42
2018-07-07T07:44:38.915Z,22.41
2018-07-07T07:47:12.285Z,22.56
2018-07-07T07:49:45.686Z,22.61
2018-07-07T07:52:19.034Z,22.81
2018-07-07T07:54:52.514Z,22.97
2018-07-07T07:57:25.861Z,22.82
2018-07-07T08:00:00.056Z,22.86
2018-07-07T08:02:33.495Z,22.84
2018-07-07T08:05:07.064Z,22.89
2018-07-07T08:07:40.424Z,22.89
2018-07-07T08:10:13.868Z,22.61
2018-07-07T08:12:47.269Z,22.64
2018-07-07T08:15:20.654Z,22.70
2018-07-07T08:17:54.023Z,22.86
2018-07-07T08:20:27.420Z,22.90
2018-07-07T08:23:00.999Z,22.78
2018-07-07T08:25:34.364Z,22.79
2018-07-07T08:28:07.808Z,23.04
2018-07-07T08:30:41.208Z,23.22
2018-07-07T08:33:14.632Z,23.18
2018-07-07T08:35:48.039Z,23.31
2018-07-07T08:38:21.417Z,23.57
2018-07-07T08:40:54.797Z,23.57
2018-07-07T08:43:28.147Z,23.33
2018-07-07T08:46:01.622Z,23.07
2018-07-07T08:48:35.000Z,23.20
2018-07-07T08:51:08.409Z,23.30
2018-07-07T08:53:41.781Z,23.39
2018-07-07T08:56:15.186Z,23.22
2018-07-07T08:58:48.592Z,22.92
2018-07-07T09:01:21.983Z,22.99
2018-07-07T09:03:55.370Z,23.22
2018-07-07T09:06:28.780Z,23.42
2018-07-07T09:09:02.163Z,23.28
2018-07-07T09:11:35.578Z,23.19
2018-07-07T09:14:09.005Z,23.02
2018-07-07T09:16:42.468Z,23.25
2018-07-07T09:19:15.833Z,23.41
2018-07-07T09:21:49.248Z,23.52
2018-07-07T09:24:22.665Z,23.58
2018-07-07T09:26:56.120Z,23.41
2018-07-07T09:29:29.501Z,23.34
2018-07-07T09:32:02.937Z,23.49
2018-07-07T09:34:36.314Z,23.67
2018-07-07T09:37:09.704Z,23.71
2018-07-07T09:39:43.105Z,23.85
2018-07-07T09:42:16.542Z,23.91
2018-07-07T09:44:49.975Z,24.02
2018-07-07T09:47:23.341Z,24.08
2018-07-07T09:49:56.723Z,24.17
2018-07-07T09:52:30.095Z,24.21
2018-07-07T09:55:03.507Z,24.28
2018-07-07T09:57:36.993Z,24.56
2018-07-07T10:00:16.599Z,24.80
2018-07-07T10:02:50.008Z,24.82
2018-07-07T10:05:25.340Z,24.96
2018-07-07T10:07:58.714Z,25.05
2018-07-07T10:10:32.131Z,25.27
2018-07-07T10:13:06.361Z,25.37
2018-07-07T10:15:39.738Z,25.12
2018-07-07T10:18:13.112Z,25.12
2018-07-07T10:20:46.632Z,25.01
2018-07-07T10:23:19.954Z,24.92
2018-07-07T10:25:53.331Z,24.87
2018-07-07T10:28:26.799Z,24.96
2018-07-07T10:31:00.259Z,25.04
2018-07-07T10:33:33.679Z,24.99
2018-07-07T10:36:08.193Z,24.99
2018-07-07T10:38:41.584Z,24.98
2018-07-07T10:41:15.048Z,24.98
2018-07-07T10:43:48.431Z,24.95
2018-07-07T10:46:21.951Z,24.96
2018-07-07T10:48:55.379Z,25.09
2018-07-07T10:51:28.759Z,25.17
2018-07-07T10:54:02.154Z,25.16
2018-07-07T10:56:35.592Z,25.22
2018-07-07T10:59:08.976Z,25.29
2018-07-07T11:01:42.406Z,25.31
2018-07-07T11:04:16.047Z,25.36
2018-07-07T11:06:49.793Z,25.19
2018-07-07T11:09:23.265Z,25.31
2018-07-07T11:11:56.781Z,25.31
2018-07-07T11:14:30.187Z,25.36
2018-07-07T11:17:03.663Z,25.19
2018-07-07T11:19:37.023Z,25.12
2018-07-07T11:22:10.609Z,25.14
2018-07-07T11:24:44.128Z,25.61
2018-07-07T11:27:17.559Z,26.00
2018-07-07T11:29:50.980Z,26.32
2018-07-07T11:32:24.346Z,26.28
2018-07-07T11:34:57.703Z,26.00
2018-07-07T11:37:31.101Z,25.98
2018-07-07T11:40:04.878Z,25.96
2018-07-07T11:42:38.316Z,25.73
2018-07-07T11:45:11.707Z,25.84
2018-07-07T11:47:45.142Z,25.70
2018-07-07T11:50:18.687Z,25.89
2018-07-07T11:52:51.994Z,25.93
2018-07-07T11:55:25.496Z,25.87
2018-07-07T11:57:58.893Z,25.88
2018-07-07T12:00:32.349Z,25.89
2018-07-07T12:03:05.914Z,25.93
2018-07-07T12:05:39.285Z,25.87
2018-07-07T12:08:13.992Z,25.90
2018-07-07T12:10:46.259Z,25.92
2018-07-07T12:13:19.671Z,25.91
2018-07-07T12:15:53.589Z,26.00
2018-07-07T12:18:26.991Z,26.07
2018-07-07T12:21:00.386Z,26.07
2018-07-07T12:23:33.755Z,26.06
2018-07-07T12:26:07.148Z,25.94
2018-07-07T12:28:40.582Z,25.91
2018-07-07T12:31:13.968Z,25.82
2018-07-07T12:33:47.380Z,25.83
2018-07-07T12:36:20.827Z,25.86
2018-07-07T12:38:54.461Z,25.82
2018-07-07T12:41:27.837Z,25.84
2018-07-07T12:44:01.321Z,25.74
2018-07-07T12:46:34.772Z,25.82
2018-07-07T12:49:08.610Z,25.76
2018-07-07T12:51:42.322Z,25.85
2018-07-07T12:54:16.145Z,25.74
2018-07-07T12:56:49.644Z,25.86
2018-07-07T12:59:23.893Z,25.77
2018-07-07T13:01:58.420Z,25.68
2018-07-07T13:04:31.840Z,25.83
2018-07-07T13:07:05.741Z,25.89
2018-07-07T13:09:39.106Z,25.97
2018-07-07T13:12:12.506Z,25.97
2018-07-07T13:14:45.934Z,26.03
2018-07-07T13:17:19.395Z,26.07
2018-07-07T13:19:53.348Z,26.08
2018-07-07T13:22:26.852Z,26.13
2018-07-07T13:25:00.304Z,26.21
2018-07-07T13:27:34.033Z,26.33
2018-07-07T13:30:08.178Z,26.35
2018-07-07T13:32:41.596Z,26.23
2018-07-07T13:35:15.029Z,26.16
2018-07-07T13:37:48.456Z,26.24
2018-07-07T13:40:21.938Z,26.24
2018-07-07T13:43:00.606Z,26.29
2018-07-07T13:45:34.079Z,26.55
2018-07-07T13:48:07.486Z,26.94
2018-07-07T13:50:40.904Z,26.68
2018-07-07T13:53:16.459Z,26.49
2018-07-07T13:55:49.904Z,26.32
2018-07-07T13:58:23.387Z,26.17
2018-07-07T14:00:57.597Z,26.14
2018-07-07T14:03:31.022Z,26.16
2018-07-07T14:06:04.896Z,26.18
2018-07-07T14:08:38.346Z,26.21
2018-07-07T14:11:11.918Z,26.21
2018-07-07T14:13:45.356Z,26.04
2018-07-07T14:16:19.128Z,26.03
2018-07-07T14:18:52.848Z,26.16
2018-07-07T14:21:26.450Z,26.22
2018-07-07T14:23:59.981Z,26.24
2018-07-07T14:26:33.496Z,26.26
2018-07-07T14:29:06.947Z,26.19
2018-07-07T14:31:40.365Z,26.12
2018-07-07T14:34:13.783Z,26.07
2018-07-07T14:36:47.211Z,26.09
2018-07-07T14:39:20.603Z,26.01
2018-07-07T14:42:02.815Z,26.05
2018-07-07T14:44:36.334Z,26.00
2018-07-07T14:47:09.712Z,25.91
2018-07-07T14:49:43.456Z,25.89
2018-07-07T14:52:16.842Z,25.84
2018-07-07T14:54:50.297Z,25.82
2018-07-07T14:57:23.709Z,25.85
2018-07-07T14:59:57.139Z,25.89
2018-07-07T15:02:30.583Z,26.03
2018-07-07T15:05:04.749Z,26.01
2018-07-07T15:07:38.130Z,25.84
2018-07-07T15:10:12.464Z,25.79
2018-07-07T15:12:46.871Z,25.77
2018-07-07T15:15:20.290Z,25.78
2018-07-07T15:17:53.688Z,25.82
2018-07-07T15:20:27.121Z,25.78
2018-07-07T15:23:00.546Z,25.57
2018-07-07T15:25:33.986Z,25.59
2018-07-07T15:28:07.379Z,25.59
2018-07-07T15:30:40.916Z,25.60
2018-07-07T15:33:14.278Z,25.50
2018-07-07T15:35:47.959Z,25.45
2018-07-07T15:38:21.376Z,25.47
2018-07-07T15:40:54.753Z,25.30
2018-07-07T15:43:28.134Z,25.15
2018-07-07T15:46:01.594Z,25.18
2018-07-07T15:48:35.092Z,25.17
2018-07-07T15:51:08.500Z,25.26
2018-07-07T15:53:41.875Z,25.19
2018-07-07T15:56:15.294Z,25.10
2018-07-07T15:58:48.735Z,25.05
2018-07-07T16:01:31.966Z,25.14
2018-07-07T16:04:05.448Z,25.11
2018-07-07T16:06:38.843Z,25.10
2018-07-07T16:09:12.230Z,25.04
2018-07-07T16:11:45.962Z,25.07
2018-07-07T16:14:19.460Z,25.03
2018-07-07T16:16:52.831Z,25.11
2018-07-07T16:19:26.325Z,25.18
2018-07-07T16:21:59.798Z,25.21
2018-07-07T16:24:33.254Z,25.18
2018-07-07T16:27:07.009Z,25.25
2018-07-07T16:29:40.391Z,25.20
2018-07-07T16:32:13.789Z,25.24
2018-07-07T16:34:47.291Z,25.23
2018-07-07T16:37:20.695Z,25.35
2018-07-07T16:39:54.175Z,25.34
2018-07-07T16:42:27.571Z,25.36
2018-07-07T16:45:01.096Z,25.32
2018-07-07T16:47:35.123Z,25.09
2018-07-07T16:50:08.538Z,25.10
2018-07-07T16:52:41.968Z,25.05
2018-07-07T16:55:15.456Z,24.81
2018-07-07T16:57:48.953Z,24.82
2018-07-07T17:00:22.443Z,24.73
2018-07-07T17:02:56.047Z,24.85
2018-07-07T17:05:29.568Z,25.15
2018-07-07T17:08:03.095Z,25.17
2018-07-07T17:10:36.528Z,24.99
2018-07-07T17:13:09.996Z,25.00
2018-07-07T17:15:43.471Z,25.29
2018-07-07T17:18:16.916Z,25.48
2018-07-07T17:20:50.383Z,25.19
2018-07-07T17:23:46.277Z,25.21
2018-07-07T17:26:36.550Z,24.89
2018-07-07T17:32:17.047Z,24.54
2018-07-07T17:35:02.144Z,24.32
2018-07-07T17:37:36.015Z,24.11
2018-07-07T17:40:09.463Z,23.95
2018-07-07T17:42:43.052Z,23.81
2018-07-07T17:45:16.947Z,23.74
2018-07-07T17:47:51.569Z,23.57
2018-07-07T17:50:25.531Z,23.48
2018-07-07T17:52:59.940Z,23.48
2018-07-07T17:55:34.234Z,23.29
2018-07-07T17:58:08.395Z,23.20
2018-07-07T18:00:44.528Z,23.07
2018-07-07T18:03:19.067Z,23.09
2018-07-07T18:05:53.646Z,23.02
2018-07-07T18:08:38.400Z,22.93
2018-07-07T18:11:12.614Z,22.77
2018-07-07T18:13:46.947Z,22.74
2018-07-07T18:16:23.418Z,22.58
2018-07-07T18:18:57.475Z,22.52
2018-07-07T18:21:31.628Z,22.48
2018-07-07T18:24:05.820Z,22.45
2018-07-07T18:26:41.921Z,22.31
2018-07-07T18:29:18.575Z,22.25
2018-07-07T18:32:01.122Z,22.24
2018-07-07T18:34:42.699Z,22.11
2018-07-07T18:37:21.764Z,21.90
2018-07-07T18:39:55.248Z,21.80
2018-07-07T18:42:28.690Z,21.77
2018-07-07T18:45:02.109Z,21.80
2018-07-07T18:47:35.520Z,21.69
2018-07-07T18:50:08.935Z,21.66
2018-07-07T18:52:42.359Z,21.59
2018-07-07T18:55:15.777Z,21.48
2018-07-07T18:57:49.184Z,21.39
2018-07-07T19:00:22.549Z,21.36
2018-07-07T19:02:55.946Z,21.29
2018-07-07T19:05:29.320Z,21.18
2018-07-07T19:08:02.719Z,21.14
2018-07-07T19:10:36.111Z,21.09
2018-07-07T19:13:09.538Z,21.00
2018-07-07T19:15:46.145Z,21.03
2018-07-07T19:18:19.578Z,20.98
2018-07-07T19:20:58.477Z,20.91
2018-07-07T19:23:37.050Z,20.86
2018-07-07T19:26:15.712Z,20.80
2018-07-07T19:28:49.140Z,20.71
2018-07-07T19:31:22.537Z,20.67
2018-07-07T19:34:01.339Z,20.63
2018-07-07T19:37:39.955Z,20.53
2018-07-07T19:40:13.407Z,20.36
2018-07-07T19:42:49.206Z,20.31
2018-07-07T19:45:22.580Z,20.20
2018-07-07T19:47:55.974Z,20.15
2018-07-07T19:50:29.368Z,20.17
2018-07-07T19:53:02.778Z,20.14
2018-07-07T19:55:36.149Z,20.11
2018-07-07T19:58:09.548Z,20.06
2018-07-07T20:00:42.938Z,19.94
2018-07-07T20:03:16.357Z,19.74
2018-07-07T20:05:49.739Z,19.68
2018-07-07T20:08:23.186Z,19.68
2018-07-07T20:10:57.437Z,19.65
2018-07-07T20:13:30.968Z,19.65
2018-07-07T20:16:13.663Z,19.64
2018-07-07T20:19:16.318Z,19.63
2018-07-07T20:21:51.974Z,19.65
2018-07-07T20:24:38.749Z,19.59
2018-07-07T20:27:17.402Z,19.47
2018-07-07T20:29:50.855Z,19.34
2018-07-07T20:32:29.465Z,19.24
2018-07-07T20:35:02.937Z,19.21
2018-07-07T20:37:36.342Z,19.18
2018-07-07T20:40:09.787Z,19.11
2018-07-07T20:42:43.214Z,18.99
2018-07-07T20:45:16.627Z,18.94
2018-07-07T20:47:50.113Z,18.93
2018-07-07T20:50:23.719Z,18.86
2018-07-07T20:52:57.095Z,18.83
2018-07-07T20:55:30.570Z,18.76
2018-07-07T20:58:03.993Z,18.79
2018-07-07T21:00:37.387Z,18.76
2018-07-07T21:03:11.312Z,18.65
2018-07-07T21:05:45.392Z,18.63
2018-07-07T21:08:19.044Z,18.55
2018-07-07T21:10:52.834Z,18.55
2018-07-07T21:13:27.784Z,18.57
2018-07-07T21:16:01.587Z,18.58
2018-07-07T21:18:34.963Z,18.55
2018-07-07T21:21:08.369Z,18.45
2018-07-07T21:23:41.855Z,18.32
2018-07-07T21:26:17.992Z,18.31
2018-07-07T21:28:51.525Z,18.30
2018-07-07T21:31:25.631Z,18.31
2018-07-07T21:33:59.064Z,18.25
2018-07-07T21:36:32.461Z,18.10
2018-07-07T21:39:06.735Z,17.96
2018-07-07T21:41:40.154Z,17.94
2018-07-07T21:44:13.555Z,17.93
2018-07-07T21:46:47.059Z,17.91
2018-07-07T21:49:20.500Z,17.85
2018-07-07T21:51:53.911Z,17.79
2018-07-07T21:54:27.325Z,17.73
2018-07-07T21:57:00.746Z,17.69
2018-07-07T21:59:34.174Z,17.81
2018-07-07T22:02:12.806Z,17.81
2018-07-07T22:04:51.526Z,17.74
2018-07-07T22:07:30.169Z,17.74
2018-07-07T22:10:03.611Z,17.64
2018-07-07T22:12:37.135Z,17.56
2018-07-07T22:15:10.638Z,17.46
2018-07-07T22:17:44.046Z,17.45
2018-07-07T22:20:27.504Z,17.47
2018-07-07T22:23:00.904Z,17.47
2018-07-07T22:25:34.332Z,17.43
2018-07-07T22:28:07.805Z,17.46
2018-07-07T22:30:41.240Z,17.34
2018-07-07T22:33:20.355Z,17.29
2018-07-07T22:35:59.201Z,17.31
2018-07-07T22:38:38.017Z,17.32
2018-07-07T22:41:11.465Z,17.24
2018-07-07T22:43:44.855Z,17.17
2018-07-07T22:46:18.300Z,17.20
2018-07-07T22:48:52.085Z,17.12
2018-07-07T22:51:25.491Z,17.14
2018-07-07T22:53:58.880Z,17.10
2018-07-07T22:56:33.142Z,17.13
2018-07-07T22:59:06.535Z,17.11
2018-07-07T23:01:39.984Z,17.00
2018-07-07T23:04:13.381Z,16.96
2018-07-07T23:06:47.251Z,16.91
2018-07-07T23:09:20.679Z,16.91
2018-07-07T23:11:54.942Z,16.89
2018-07-07T23:14:28.404Z,16.86
2018-07-07T23:17:02.763Z,16.83
2018-07-07T23:19:36.250Z,16.76
2018-07-07T23:22:09.661Z,16.76
2018-07-07T23:24:43.185Z,16.68
2018-07-07T23:27:16.622Z,16.65
2018-07-07T23:29:50.051Z,16.66
2018-07-07T23:32:23.535Z,16.63
2018-07-07T23:34:56.935Z,16.64
2018-07-07T23:37:36.849Z,16.62
2018-07-07T23:40:10.683Z,16.54
2018-07-07T23:42:44.131Z,16.51
2018-07-07T23:45:17.528Z,16.50
2018-07-07T23:47:50.959Z,16.47
2018-07-07T23:50:24.370Z,16.46
2018-07-07T23:52:57.827Z,16.41
2018-07-07T23:55:31.204Z,16.39
2018-07-07T23:58:04.645Z,16.32
